createdAt,value
2022-08-01T00:00:13.135Z,23.44
2022-08-01T00:02:47.162Z,23.34
2022-08-01T00:05:14.534Z,23.32
2022-08-01T00:07:41.841Z,23.33
2022-08-01T00:10:15.188Z,23.31
2022-08-01T00:12:43.621Z,23.31
2022-08-01T00:15:12.847Z,23.31
2022-08-01T00:17:46.490Z,23.27
2022-08-01T00:20:14.940Z,23.27
2022-08-01T00:22:42.272Z,23.30
2022-08-01T00:25:10.031Z,23.26
2022-08-01T00:27:41.026Z,23.19
2022-08-01T00:30:14.623Z,23.19
2022-08-01T00:32:43.640Z,23.19
2022-08-01T00:35:15.976Z,23.23
2022-08-01T00:37:47.380Z,23.28
2022-08-01T00:40:16.158Z,23.29
2022-08-01T00:42:45.805Z,23.23
2022-08-01T00:45:13.076Z,23.25
2022-08-01T00:47:40.581Z,23.23
2022-08-01T00:50:08.907Z,23.13
2022-08-01T00:52:36.797Z,23.06
2022-08-01T00:55:04.729Z,23.07
2022-08-01T00:58:03.407Z,23.08
2022-08-01T01:00:20.419Z,23.05
2022-08-01T01:02:54.589Z,23.00
2022-08-01T01:05:22.481Z,22.99
2022-08-01T01:08:03.439Z,22.90
2022-08-01T01:10:41.313Z,22.92
2022-08-01T01:13:21.489Z,22.90
2022-08-01T01:15:56.166Z,22.82
2022-08-01T01:18:32.987Z,22.80
2022-08-01T01:21:22.553Z,22.75
2022-08-01T01:24:19.864Z,22.71
2022-08-01T01:26:52.744Z,22.80
2022-08-01T01:29:58.580Z,22.69
2022-08-01T01:32:35.315Z,22.63
2022-08-01T01:35:09.996Z,22.66
2022-08-01T01:37:42.628Z,22.63
2022-08-01T01:40:13.409Z,22.66
2022-08-01T01:42:43.208Z,22.66
2022-08-01T01:45:15.848Z,22.67
2022-08-01T01:47:54.453Z,22.70
2022-08-01T01:50:23.341Z,22.64
2022-08-01T01:52:51.938Z,22.57
2022-08-01T01:55:27.137Z,22.60
2022-08-01T01:57:56.458Z,22.58
2022-08-01T02:00:24.748Z,22.57
2022-08-01T02:02:57.353Z,22.62
2022-08-01T02:05:26.130Z,22.66
2022-08-01T02:07:59.684Z,22.64
2022-08-01T02:10:29.324Z,22.59
2022-08-01T02:12:58.383Z,22.55
2022-08-01T02:15:32.289Z,22.58
2022-08-01T02:18:02.010Z,22.56
2022-08-01T02:20:31.334Z,22.49
2022-08-01T02:23:08.296Z,22.54
2022-08-01T02:26:11.105Z,22.47
2022-08-01T02:28:42.981Z,22.55
2022-08-01T02:31:15.193Z,22.65
2022-08-01T02:33:51.241Z,22.69
2022-08-01T02:36:30.853Z,22.58
2022-08-01T02:39:03.847Z,22.59
2022-08-01T02:41:40.589Z,22.52
2022-08-01T02:44:10.434Z,22.56
2022-08-01T02:46:41.682Z,22.51
2022-08-01T02:49:11.266Z,22.51
2022-08-01T02:51:49.198Z,22.47
2022-08-01T02:54:19.323Z,22.48
2022-08-01T02:56:57.038Z,22.46
2022-08-01T02:59:28.454Z,22.45
2022-08-01T03:02:02.917Z,22.44
2022-08-01T03:04:33.413Z,22.41
2022-08-01T03:07:11.950Z,22.40
2022-08-01T03:09:41.705Z,22.38
2022-08-01T03:12:17.389Z,22.42
2022-08-01T03:14:47.583Z,22.43
2022-08-01T03:17:21.191Z,22.36
2022-08-01T03:19:50.762Z,22.37
2022-08-01T03:22:19.756Z,22.32
2022-08-01T03:24:50.886Z,22.24
2022-08-01T03:27:21.457Z,22.22
2022-08-01T03:29:57.918Z,22.24
2022-08-01T03:32:29.020Z,22.24
2022-08-01T03:34:56.711Z,22.24
2022-08-01T03:38:14.295Z,22.23
2022-08-01T03:40:42.315Z,22.20
2022-08-01T03:43:26.749Z,22.23
2022-08-01T03:45:58.805Z,22.27
2022-08-01T03:48:30.666Z,22.31
2022-08-01T03:51:00.171Z,22.27
2022-08-01T03:53:31.713Z,22.08
2022-08-01T03:56:03.662Z,22.17
2022-08-01T03:58:31.660Z,22.21
2022-08-01T04:00:59.777Z,22.21
2022-08-01T04:03:27.444Z,22.26
2022-08-01T04:05:54.862Z,22.23
2022-08-01T04:08:22.171Z,22.20
2022-08-01T04:10:56.410Z,22.25
2022-08-01T04:13:24.013Z,22.21
2022-08-01T04:15:51.312Z,22.17
2022-08-01T04:18:18.499Z,22.14
2022-08-01T04:20:47.676Z,22.12
2022-08-01T04:23:21.669Z,22.04
2022-08-01T04:25:51.117Z,22.05
2022-08-01T04:28:20.675Z,22.08
2022-08-01T04:30:52.726Z,22.10
2022-08-01T04:33:21.197Z,22.11
2022-08-01T04:36:02.019Z,22.11
2022-08-01T04:38:37.508Z,22.22
2022-08-01T04:41:08.691Z,22.19
2022-08-01T04:43:37.959Z,22.21
2022-08-01T04:46:10.657Z,22.18
2022-08-01T04:48:39.628Z,22.20
2022-08-01T04:51:16.008Z,22.13
2022-08-01T04:53:44.613Z,22.13
2022-08-01T04:56:13.963Z,22.02
2022-08-01T04:58:41.989Z,22.14
2022-08-01T05:01:14.987Z,22.17
2022-08-01T05:03:42.396Z,22.11
2022-08-01T05:06:19.169Z,22.11
2022-08-01T05:08:51.792Z,22.15
2022-08-01T05:11:18.994Z,22.22
2022-08-01T05:13:49.745Z,22.15
2022-08-01T05:16:17.865Z,22.22
2022-08-01T05:18:45.119Z,22.18
2022-08-01T05:21:14.905Z,22.19
2022-08-01T05:23:43.574Z,22.12
2022-08-01T05:26:14.554Z,22.15
2022-08-01T05:28:42.693Z,22.07
2022-08-01T05:31:09.784Z,22.23
2022-08-01T05:33:36.856Z,22.24
2022-08-01T05:36:04.321Z,22.30
2022-08-01T05:38:34.464Z,22.22
2022-08-01T05:41:01.938Z,22.30
2022-08-01T05:43:29.392Z,22.36
2022-08-01T05:45:56.877Z,22.47
2022-08-01T05:48:24.015Z,22.49
2022-08-01T05:50:54.650Z,22.53
2022-08-01T05:53:25.412Z,22.47
2022-08-01T05:55:52.393Z,22.44
2022-08-01T05:58:19.639Z,22.47
2022-08-01T06:00:46.828Z,22.44
2022-08-01T06:03:15.243Z,22.45
2022-08-01T06:05:42.340Z,22.44
2022-08-01T06:08:09.678Z,22.44
2022-08-01T06:10:40.712Z,22.38
2022-08-01T06:13:08.046Z,22.41
2022-08-01T06:15:35.409Z,22.48
2022-08-01T06:18:02.518Z,22.58
2022-08-01T06:20:29.742Z,22.77
2022-08-01T06:22:56.980Z,22.96
2022-08-01T06:25:34.265Z,23.18
2022-08-01T06:28:01.817Z,23.51
2022-08-01T06:30:29.101Z,23.60
2022-08-01T06:33:05.746Z,23.66
2022-08-01T06:35:32.873Z,23.59
2022-08-01T06:38:00.009Z,23.53
2022-08-01T06:40:27.586Z,23.49
2022-08-01T06:42:54.766Z,23.62
2022-08-01T06:45:23.315Z,23.61
2022-08-01T06:47:51.105Z,23.55
2022-08-01T06:50:18.589Z,23.61
2022-08-01T06:52:47.144Z,23.64
2022-08-01T06:55:14.440Z,23.70
2022-08-01T06:57:54.193Z,23.67
2022-08-01T07:00:23.575Z,23.44
2022-08-01T07:03:02.877Z,23.57
2022-08-01T07:05:31.972Z,23.65
2022-08-01T07:08:00.222Z,23.68
2022-08-01T07:10:27.417Z,23.64
2022-08-01T07:12:54.498Z,24.00
2022-08-01T07:15:27.155Z,24.09
2022-08-01T07:17:54.434Z,24.23
2022-08-01T07:20:26.974Z,24.28
2022-08-01T07:22:54.310Z,24.14
2022-08-01T07:25:23.614Z,23.99
2022-08-01T07:27:50.756Z,23.73
2022-08-01T07:30:19.661Z,23.72
2022-08-01T07:32:46.956Z,23.59
2022-08-01T07:35:14.464Z,23.42
2022-08-01T07:37:46.297Z,23.38
2022-08-01T07:40:19.002Z,23.34
2022-08-01T07:42:47.658Z,23.40
2022-08-01T07:45:16.102Z,23.46
2022-08-01T07:47:47.941Z,23.61
2022-08-01T07:50:15.100Z,23.69
2022-08-01T07:52:42.650Z,23.83
2022-08-01T07:55:11.827Z,23.88
2022-08-01T07:57:43.997Z,23.94
2022-08-01T08:00:11.673Z,23.95
2022-08-01T08:02:41.221Z,24.06
2022-08-01T08:05:14.135Z,24.30
2022-08-01T08:07:41.565Z,24.69
2022-08-01T08:10:09.469Z,24.94
2022-08-01T08:12:36.449Z,25.12
2022-08-01T08:15:06.604Z,25.21
2022-08-01T08:17:35.905Z,25.14
2022-08-01T08:20:10.021Z,24.97
2022-08-01T08:22:37.593Z,24.77
2022-08-01T08:25:05.609Z,24.63
2022-08-01T08:27:35.436Z,24.58
2022-08-01T08:30:09.855Z,24.78
2022-08-01T08:32:37.141Z,25.02
2022-08-01T08:35:05.863Z,24.96
2022-08-01T08:37:39.075Z,24.84
2022-08-01T08:40:16.581Z,24.86
2022-08-01T08:42:48.444Z,24.99
2022-08-01T08:45:15.657Z,25.23
2022-08-01T08:47:44.421Z,25.14
2022-08-01T08:50:14.805Z,25.06
2022-08-01T08:52:43.512Z,25.19
2022-08-01T08:55:12.393Z,25.08
2022-08-01T08:57:41.505Z,25.18
2022-08-01T09:00:14.122Z,25.21
2022-08-01T09:02:47.590Z,25.19
2022-08-01T09:05:19.497Z,25.27
2022-08-01T09:07:47.246Z,25.03
2022-08-01T09:10:14.410Z,24.98
2022-08-01T09:13:03.080Z,24.94
2022-08-01T09:15:41.074Z,25.16
2022-08-01T09:18:34.859Z,25.26
2022-08-01T09:21:15.275Z,25.21
2022-08-01T09:23:54.215Z,25.12
2022-08-01T09:26:32.805Z,25.16
2022-08-01T09:29:05.916Z,25.06
2022-08-01T09:31:47.677Z,25.24
2022-08-01T09:34:19.741Z,25.32
2022-08-01T09:36:56.622Z,25.04
2022-08-01T09:39:32.018Z,25.21
2022-08-01T09:42:01.622Z,25.37
2022-08-01T09:44:44.746Z,25.57
2022-08-01T09:47:15.506Z,25.26
2022-08-01T09:49:50.579Z,25.17
2022-08-01T09:52:29.122Z,25.26
2022-08-01T09:55:01.905Z,25.31
2022-08-01T09:57:30.322Z,25.49
2022-08-01T10:00:01.271Z,25.68
2022-08-01T10:02:37.592Z,25.88
2022-08-01T10:05:08.260Z,25.97
2022-08-01T10:08:07.781Z,25.68
2022-08-01T10:10:37.435Z,25.42
2022-08-01T10:13:04.876Z,25.47
2022-08-01T10:15:37.450Z,25.57
2022-08-01T10:18:16.111Z,25.58
2022-08-01T10:20:44.503Z,25.45
2022-08-01T10:23:12.716Z,25.62
2022-08-01T10:25:46.949Z,25.99
2022-08-01T10:28:17.824Z,26.22
2022-08-01T10:30:55.476Z,26.33
2022-08-01T10:33:50.900Z,25.93
2022-08-01T10:36:11.929Z,25.76
2022-08-01T10:38:40.419Z,25.87
2022-08-01T10:41:08.797Z,25.94
2022-08-01T10:43:36.999Z,25.92
2022-08-01T10:46:06.965Z,26.28
2022-08-01T10:48:47.897Z,26.62
2022-08-01T10:51:17.837Z,26.86
2022-08-01T10:53:54.338Z,26.60
2022-08-01T10:56:46.759Z,26.31
2022-08-01T10:59:49.362Z,26.27
2022-08-01T11:02:09.756Z,26.36
2022-08-01T11:04:46.502Z,26.17
2022-08-01T11:07:25.816Z,26.10
2022-08-01T11:10:16.643Z,26.06
2022-08-01T11:12:44.270Z,26.12
2022-08-01T11:15:11.585Z,26.05
2022-08-01T11:17:49.108Z,26.11
2022-08-01T11:20:33.627Z,26.22
2022-08-01T11:23:12.722Z,26.52
2022-08-01T11:26:05.146Z,26.67
2022-08-01T11:28:41.275Z,26.96
2022-08-01T11:31:17.277Z,27.16
2022-08-01T11:33:49.593Z,27.23
2022-08-01T11:36:16.989Z,27.18
2022-08-01T11:38:51.197Z,27.25
2022-08-01T11:41:36.849Z,27.26
2022-08-01T11:44:30.527Z,27.31
2022-08-01T11:47:09.146Z,27.33
2022-08-01T11:49:37.335Z,27.25
2022-08-01T11:52:16.853Z,27.31
2022-08-01T11:54:46.302Z,27.37
2022-08-01T11:57:23.472Z,27.51
2022-08-01T12:00:03.969Z,27.28
2022-08-01T12:02:35.022Z,27.01
2022-08-01T12:05:11.684Z,27.01
2022-08-01T12:07:41.616Z,26.91
2022-08-01T12:10:15.061Z,26.83
2022-08-01T12:12:49.687Z,26.82
2022-08-01T12:15:19.635Z,26.79
2022-08-01T12:17:58.308Z,26.85
2022-08-01T12:20:31.963Z,27.24
2022-08-01T12:23:08.383Z,27.54
2022-08-01T12:25:36.516Z,27.63
2022-08-01T12:28:05.785Z,27.68
2022-08-01T12:30:39.859Z,27.22
2022-08-01T12:33:09.612Z,27.38
2022-08-01T12:35:41.669Z,27.42
2022-08-01T12:38:18.717Z,27.18
2022-08-01T12:40:51.693Z,26.87
2022-08-01T12:43:28.596Z,26.88
2022-08-01T12:45:59.942Z,26.90
2022-08-01T12:48:32.434Z,26.88
2022-08-01T12:51:02.017Z,27.08
2022-08-01T12:53:41.142Z,27.14
2022-08-01T12:56:10.367Z,27.28
2022-08-01T12:58:37.647Z,27.33
2022-08-01T13:01:14.161Z,27.23
2022-08-01T13:03:58.502Z,27.17
2022-08-01T13:06:31.764Z,27.12
2022-08-01T13:09:14.243Z,27.29
2022-08-01T13:12:09.612Z,27.51
2022-08-01T13:14:41.702Z,27.67
2022-08-01T13:17:09.342Z,27.51
2022-08-01T13:19:48.063Z,27.59
2022-08-01T13:22:18.324Z,27.45
2022-08-01T13:25:10.482Z,27.50
2022-08-01T13:27:53.750Z,27.45
2022-08-01T13:30:25.892Z,27.32
2022-08-01T13:33:11.385Z,27.34
2022-08-01T13:35:38.428Z,27.26
2022-08-01T13:38:09.369Z,27.23
2022-08-01T13:40:36.614Z,27.02
2022-08-01T13:43:03.756Z,27.29
2022-08-01T13:45:30.865Z,27.41
2022-08-01T13:48:12.929Z,27.53
2022-08-01T13:51:13.527Z,27.41
2022-08-01T13:53:58.417Z,27.40
2022-08-01T13:56:28.958Z,27.24
2022-08-01T13:58:56.534Z,27.24
2022-08-01T14:01:24.614Z,27.16
2022-08-01T14:03:52.454Z,27.03
2022-08-01T14:06:23.092Z,26.94
2022-08-01T14:08:50.789Z,26.87
2022-08-01T14:11:24.412Z,26.92
2022-08-01T14:13:54.873Z,26.94
2022-08-01T14:16:40.497Z,27.04
2022-08-01T14:19:07.894Z,27.13
2022-08-01T14:21:35.086Z,27.40
2022-08-01T14:24:02.153Z,27.60
2022-08-01T14:26:29.407Z,27.93
2022-08-01T14:29:04.234Z,28.09
2022-08-01T14:31:34.667Z,28.21
2022-08-01T14:34:02.425Z,27.98
2022-08-01T14:36:39.398Z,28.10
2022-08-01T14:39:15.287Z,28.13
2022-08-01T14:41:49.084Z,27.89
2022-08-01T14:44:25.270Z,27.75
2022-08-01T14:46:59.985Z,27.67
2022-08-01T14:49:38.135Z,27.71
2022-08-01T14:52:31.131Z,27.73
2022-08-01T14:54:58.323Z,27.61
2022-08-01T14:57:25.758Z,27.51
2022-08-01T14:59:57.206Z,27.48
2022-08-01T15:02:28.187Z,27.64
2022-08-01T15:04:55.637Z,27.86
2022-08-01T15:07:22.825Z,27.89
2022-08-01T15:09:50.648Z,27.75
2022-08-01T15:12:49.830Z,27.78
2022-08-01T15:15:26.050Z,27.87
2022-08-01T15:17:54.322Z,28.02
2022-08-01T15:20:25.505Z,27.86
2022-08-01T15:22:53.693Z,27.63
2022-08-01T15:25:24.585Z,27.74
2022-08-01T15:27:52.153Z,27.96
2022-08-01T15:30:23.689Z,28.09
2022-08-01T15:32:54.680Z,28.28
2022-08-01T15:35:21.927Z,28.30
2022-08-01T15:37:49.081Z,28.21
2022-08-01T15:40:17.226Z,28.24
2022-08-01T15:42:50.891Z,28.11
2022-08-01T15:45:47.332Z,27.99
2022-08-01T15:48:09.456Z,27.75
2022-08-01T15:50:51.445Z,27.59
2022-08-01T15:53:23.539Z,27.52
2022-08-01T15:55:52.318Z,27.54
2022-08-01T15:58:20.347Z,27.43
2022-08-01T16:00:52.941Z,27.14
2022-08-01T16:03:21.802Z,27.19
2022-08-01T16:05:50.435Z,27.22
2022-08-01T16:08:18.233Z,27.20
2022-08-01T16:10:47.186Z,27.04
2022-08-01T16:13:18.733Z,27.08
2022-08-01T16:15:53.417Z,26.97
2022-08-01T16:18:23.372Z,27.05
2022-08-01T16:20:50.485Z,26.93
2022-08-01T16:23:17.621Z,26.88
2022-08-01T16:25:51.793Z,27.09
2022-08-01T16:28:21.798Z,26.98
2022-08-01T16:31:10.112Z,26.90
2022-08-01T16:33:58.190Z,27.04
2022-08-01T16:39:14.193Z,27.21
2022-08-01T16:41:55.136Z,27.21
2022-08-01T16:44:28.576Z,27.24
2022-08-01T16:47:03.609Z,27.24
2022-08-01T16:49:32.009Z,27.16
2022-08-01T16:52:07.333Z,27.15
2022-08-01T16:54:53.210Z,26.96
2022-08-01T16:57:20.424Z,26.88
2022-08-01T16:59:47.658Z,26.85
2022-08-01T17:02:15.608Z,26.81
2022-08-01T17:04:42.929Z,26.62
2022-08-01T17:07:15.251Z,26.51
2022-08-01T17:09:57.553Z,26.38
2022-08-01T17:12:24.840Z,26.27
2022-08-01T17:15:10.924Z,26.13
2022-08-01T17:17:43.913Z,25.91
2022-08-01T17:20:29.632Z,25.71
2022-08-01T17:22:57.143Z,25.74
2022-08-01T17:25:24.581Z,25.69
2022-08-01T17:27:58.653Z,25.70
2022-08-01T17:30:44.238Z,25.58
2022-08-01T17:33:11.540Z,25.54
2022-08-01T17:35:38.740Z,25.47
2022-08-01T17:38:06.001Z,25.62
2022-08-01T17:40:40.560Z,25.80
2022-08-01T17:43:08.868Z,25.76
2022-08-01T17:45:47.633Z,25.87
2022-08-01T17:48:24.096Z,25.67
2022-08-01T17:51:10.056Z,25.64
2022-08-01T17:53:37.333Z,25.45
2022-08-01T17:56:23.679Z,25.41
2022-08-01T17:58:52.585Z,25.36
2022-08-01T18:01:38.020Z,25.17
2022-08-01T18:04:20.717Z,25.18
2022-08-01T18:06:58.107Z,25.12
2022-08-01T18:09:32.672Z,25.19
2022-08-01T18:12:02.027Z,25.24
2022-08-01T18:14:39.985Z,25.26
2022-08-01T18:17:11.161Z,25.25
2022-08-01T18:19:39.882Z,25.23
2022-08-01T18:22:31.517Z,25.16
2022-08-01T18:25:08.350Z,25.12
2022-08-01T18:28:25.778Z,25.07
2022-08-01T18:30:23.773Z,24.93
2022-08-01T18:32:50.996Z,24.89
2022-08-01T18:35:18.392Z,24.83
2022-08-01T18:37:57.100Z,24.78
2022-08-01T18:40:34.980Z,24.60
2022-08-01T18:43:20.618Z,24.73
2022-08-01T18:45:57.676Z,24.59
2022-08-01T18:48:28.891Z,24.55
2022-08-01T18:50:56.203Z,24.55
2022-08-01T18:53:26.213Z,24.45
2022-08-01T18:55:53.433Z,24.38
2022-08-01T18:58:39.894Z,24.32
2022-08-01T19:01:07.219Z,24.31
2022-08-01T19:03:42.526Z,24.24
2022-08-01T19:06:14.355Z,24.14
2022-08-01T19:08:41.704Z,24.13
2022-08-01T19:11:08.856Z,24.00
2022-08-01T19:13:44.279Z,24.00
2022-08-01T19:16:11.710Z,23.95
2022-08-01T19:18:57.650Z,23.85
2022-08-01T19:21:27.845Z,23.76
2022-08-01T19:24:22.737Z,23.77
2022-08-01T19:26:53.781Z,23.69
2022-08-01T19:29:24.114Z,23.59
2022-08-01T19:32:08.136Z,23.50
2022-08-01T19:34:39.825Z,23.46
2022-08-01T19:37:10.064Z,23.45
2022-08-01T19:39:51.787Z,23.35
2022-08-01T19:42:20.357Z,23.29
2022-08-01T19:44:48.929Z,23.25
2022-08-01T19:47:17.203Z,23.21
2022-08-01T19:50:05.038Z,23.00
2022-08-01T19:52:36.486Z,23.16
2022-08-01T19:55:10.290Z,23.10
2022-08-01T19:58:16.959Z,23.10
2022-08-01T20:00:36.838Z,23.07
2022-08-01T20:03:05.215Z,22.99
2022-08-01T20:05:34.224Z,22.89
2022-08-01T20:08:09.693Z,22.91
2022-08-01T20:10:56.673Z,22.81
2022-08-01T20:13:24.121Z,22.73
2022-08-01T20:15:53.113Z,22.65
2022-08-01T20:18:20.436Z,22.54
2022-08-01T20:20:52.442Z,22.50
2022-08-01T20:23:24.674Z,22.49
2022-08-01T20:25:54.864Z,22.42
2022-08-01T20:28:30.606Z,22.34
2022-08-01T20:31:05.286Z,22.38
2022-08-01T20:33:44.886Z,22.31
2022-08-01T20:36:25.806Z,22.35
2022-08-01T20:38:55.195Z,22.35
2022-08-01T20:41:25.325Z,22.22
2022-08-01T20:43:57.533Z,22.23
2022-08-01T20:46:28.699Z,22.14
2022-08-01T20:48:58.304Z,22.09
2022-08-01T20:51:26.442Z,22.07
2022-08-01T20:53:56.141Z,22.03
2022-08-01T20:56:29.852Z,22.03
2022-08-01T20:59:39.887Z,21.97
2022-08-01T21:02:35.351Z,21.98
2022-08-01T21:05:07.517Z,21.89
2022-08-01T21:07:58.997Z,21.85
2022-08-01T21:10:28.817Z,21.88
2022-08-01T21:13:05.654Z,21.74
2022-08-01T21:16:07.433Z,21.72
2022-08-01T21:22:01.266Z,21.59
2022-08-01T21:24:41.314Z,21.57
2022-08-01T21:27:09.563Z,21.50
2022-08-01T21:29:56.518Z,21.49
2022-08-01T21:32:29.621Z,21.46
2022-08-01T21:34:56.946Z,21.37
2022-08-01T21:37:24.427Z,21.43
2022-08-01T21:39:55.019Z,21.33
2022-08-01T21:42:37.658Z,21.17
2022-08-01T21:45:24.992Z,21.26
2022-08-01T21:47:53.242Z,21.28
2022-08-01T21:50:21.161Z,21.27
2022-08-01T21:52:54.078Z,21.16
2022-08-01T21:55:34.929Z,21.11
2022-08-01T21:58:24.809Z,21.05
2022-08-01T22:01:03.252Z,21.14
2022-08-01T22:03:41.357Z,20.95
2022-08-01T22:06:09.680Z,20.85
2022-08-01T22:08:48.602Z,20.82
2022-08-01T22:11:20.776Z,20.85
2022-08-01T22:13:53.646Z,20.82
2022-08-01T22:16:31.441Z,20.82
2022-08-01T22:19:01.610Z,20.81
2022-08-01T22:21:37.655Z,20.64
2022-08-01T22:24:11.938Z,20.65
2022-08-01T22:26:41.431Z,20.49
2022-08-01T22:29:08.565Z,20.40
2022-08-01T22:31:38.104Z,20.32
2022-08-01T22:34:07.085Z,20.49
2022-08-01T22:36:43.996Z,20.46
2022-08-01T22:39:26.362Z,20.38
2022-08-01T22:42:01.280Z,20.32
2022-08-01T22:45:19.974Z,20.46
2022-08-01T22:47:54.871Z,20.32
2022-08-01T22:50:39.543Z,20.35
2022-08-01T22:53:26.429Z,20.15
2022-08-01T22:55:58.941Z,20.21
2022-08-01T22:58:40.163Z,20.14
2022-08-01T23:01:12.596Z,20.06
2022-08-01T23:04:11.868Z,20.13
2022-08-01T23:06:50.812Z,20.09
2022-08-01T23:09:20.310Z,19.98
2022-08-01T23:11:53.051Z,19.99
2022-08-01T23:14:27.214Z,19.84
2022-08-01T23:16:56.986Z,19.96
2022-08-01T23:19:27.783Z,19.96
2022-08-01T23:21:55.537Z,19.82
2022-08-01T23:24:33.639Z,19.89
2022-08-01T23:27:54.424Z,19.86
2022-08-01T23:30:14.250Z,19.81
2022-08-01T23:33:00.215Z,19.76
2022-08-01T23:35:29.073Z,19.58
2022-08-01T23:38:02.032Z,19.50
2022-08-01T23:40:31.986Z,19.48
2022-08-01T23:43:00.273Z,19.45
2022-08-01T23:46:02.384Z,19.43
2022-08-01T23:48:25.449Z,19.50
2022-08-01T23:50:58.657Z,19.66
2022-08-01T23:53:44.050Z,19.73
2022-08-01T23:56:25.425Z,19.66
2022-08-01T23:59:02.838Z,19.53
